Malton, United Kingdom
Current Conditions -  °F | °C
As of 11:50 PM on Friday 19 Dec 2014 (Local Time) from EGXU Reporting Station
Few Clouds Few Clouds  
Wind Chill:   Ceiling: Unl
Heat Index:   Visibility: 6mi
Dew Point:   Wind: 17mph
Humidity: 100%   Direction: 270°W
Pressure: 29.97"   Gusts: NA
Location:  54.13°N, 0.8°W
Report Text: EGXU 192350Z AUTO 27015KT 9999 // FEW028/// 07/07 Q1015
Loading
Personal Weather Stations






























Interactive Weather Map New forecast layout! Learn more

10-Day Weather Forecast

Advertisements
Track Severe Weather on mobile